createdAt,value
2022-09-06T00:01:58.509Z,17.31
2022-09-06T00:12:00.283Z,17.07
2022-09-06T00:22:02.178Z,16.92
2022-09-06T00:32:04.153Z,16.97
2022-09-06T00:42:10.906Z,16.97
2022-09-06T00:52:15.451Z,16.84
2022-09-06T01:02:17.183Z,16.74
2022-09-06T01:12:54.007Z,16.85
2022-09-06T01:23:01.611Z,16.80
2022-09-06T01:33:31.636Z,16.70
2022-09-06T01:43:38.089Z,16.75
2022-09-06T01:54:04.130Z,16.79
2022-09-06T02:04:48.495Z,16.63
2022-09-06T02:15:07.252Z,16.57
2022-09-06T02:25:27.634Z,16.35
2022-09-06T02:35:30.943Z,16.14
2022-09-06T02:45:32.803Z,15.95
2022-09-06T02:55:34.833Z,15.80
2022-09-06T03:05:36.890Z,15.78
2022-09-06T03:15:39.634Z,15.54
2022-09-06T03:25:43.287Z,15.42
2022-09-06T03:35:54.473Z,15.30
2022-09-06T03:45:57.924Z,15.31
2022-09-06T03:56:00.129Z,15.35
2022-09-06T04:06:02.329Z,15.44
2022-09-06T04:16:07.911Z,15.75
2022-09-06T04:26:11.001Z,15.80
2022-09-06T04:36:13.020Z,15.74
2022-09-06T04:46:19.369Z,15.78
2022-09-06T04:56:24.164Z,15.89
2022-09-06T05:06:27.355Z,15.92
2022-09-06T05:16:29.225Z,16.01
2022-09-06T05:26:31.028Z,16.07
2022-09-06T05:36:33.337Z,16.26
2022-09-06T05:46:35.003Z,16.46
2022-09-06T05:56:36.646Z,16.80
2022-09-06T06:06:38.241Z,17.07
2022-09-06T06:16:40.025Z,17.28
2022-09-06T06:26:41.812Z,17.69
2022-09-06T06:36:44.439Z,18.29
2022-09-06T06:46:46.307Z,19.00
2022-09-06T06:56:47.963Z,19.45
2022-09-06T07:17:12.629Z,20.20
2022-09-06T07:37:36.035Z,21.13
2022-09-06T07:58:01.438Z,22.15
2022-09-06T08:18:30.977Z,22.97
2022-09-06T08:28:32.674Z,24.18
2022-09-06T08:38:34.816Z,25.09
2022-09-06T08:48:40.001Z,25.36
2022-09-06T08:58:50.956Z,25.34
2022-09-06T09:09:08.512Z,27.50
2022-09-06T09:19:11.251Z,28.53
2022-09-06T09:29:14.771Z,27.58
2022-09-06T09:39:17.204Z,27.58
2022-09-06T09:49:25.301Z,28.62
2022-09-06T09:59:34.180Z,27.95
2022-09-06T10:09:42.767Z,30.61
2022-09-06T10:19:46.434Z,30.01
2022-09-06T10:30:06.724Z,29.98
2022-09-06T10:40:17.354Z,31.39
2022-09-06T10:50:19.520Z,31.84
2022-09-06T11:00:22.025Z,32.91
2022-09-06T11:10:30.132Z,34.68
2022-09-06T11:20:57.283Z,33.95
2022-09-06T11:30:59.843Z,32.89
2022-09-06T11:41:05.584Z,33.64
2022-09-06T11:51:11.266Z,37.23
2022-09-06T12:01:13.234Z,40.52
2022-09-06T12:11:46.494Z,40.58
2022-09-06T12:21:54.465Z,36.17
2022-09-06T12:32:06.322Z,34.37
2022-09-06T12:42:13.457Z,39.49
2022-09-06T12:52:19.628Z,38.24
2022-09-06T13:02:35.190Z,39.45
2022-09-06T13:12:45.555Z,42.60
2022-09-06T13:22:50.903Z,39.24
2022-09-06T13:32:52.649Z,36.75
2022-09-06T13:43:01.144Z,29.97
2022-09-06T13:53:03.744Z,28.17
2022-09-06T14:03:05.541Z,27.35
2022-09-06T14:13:07.404Z,26.93
2022-09-06T14:23:10.758Z,26.57
2022-09-06T14:33:12.526Z,26.51
2022-09-06T14:43:15.229Z,26.60
2022-09-06T14:53:38.982Z,26.68
2022-09-06T15:03:43.050Z,26.23
2022-09-06T15:13:44.817Z,25.98
2022-09-06T15:23:46.746Z,25.87
2022-09-06T15:33:51.353Z,25.49
2022-09-06T15:43:56.890Z,24.19
2022-09-06T15:53:59.786Z,23.47
2022-09-06T16:04:06.748Z,23.28
2022-09-06T16:14:12.703Z,23.39
2022-09-06T16:24:14.737Z,23.41
2022-09-06T16:34:21.605Z,23.33
2022-09-06T16:44:23.255Z,22.92
2022-09-06T16:54:25.015Z,22.59
2022-09-06T17:04:27.708Z,22.15
2022-09-06T17:14:34.143Z,21.97
2022-09-06T17:24:37.950Z,21.96
2022-09-06T17:34:41.328Z,21.81
2022-09-06T17:45:09.417Z,21.67
2022-09-06T17:55:17.312Z,21.24
2022-09-06T18:15:54.509Z,20.99
2022-09-06T18:25:58.614Z,20.89
2022-09-06T18:36:07.047Z,20.71
2022-09-06T18:46:13.181Z,20.51
2022-09-06T18:56:22.530Z,20.30
2022-09-06T19:06:25.132Z,20.17
2022-09-06T19:16:29.329Z,20.03
2022-09-06T19:26:40.181Z,19.63
2022-09-06T19:36:43.891Z,19.33
2022-09-06T19:46:51.792Z,19.19
2022-09-06T19:57:00.953Z,18.96
2022-09-06T20:07:04.336Z,18.75
2022-09-06T20:17:32.328Z,18.64
2022-09-06T20:27:31.503Z,18.56
2022-09-06T20:37:33.504Z,18.29
2022-09-06T20:47:35.491Z,18.13
2022-09-06T20:57:38.503Z,18.12
2022-09-06T21:07:46.633Z,18.05
2022-09-06T21:17:49.638Z,18.15
2022-09-06T21:27:55.801Z,18.18
2022-09-06T21:37:57.850Z,18.06
2022-09-06T21:48:07.908Z,18.03
2022-09-06T21:58:11.248Z,17.89
2022-09-06T22:08:17.362Z,17.80
2022-09-06T22:18:19.570Z,17.76
2022-09-06T22:28:21.472Z,17.89
2022-09-06T22:38:23.288Z,17.77
2022-09-06T22:48:25.028Z,17.61
2022-09-06T22:58:29.709Z,17.50
2022-09-06T23:08:36.009Z,17.32
2022-09-06T23:18:39.067Z,17.04
2022-09-06T23:28:42.108Z,16.85
2022-09-06T23:38:48.134Z,16.72
2022-09-06T23:48:49.871Z,16.62
2022-09-06T23:58:51.546Z,16.58
